Time;durP1;ratioP1;P1;durP2;ratioP2;P2;SDS_P1;SDS_P2;PMS_P1;PMS_P2;Temp;Humidity;BMP_temperature;BMP_pressure;BME280_temperature;BME280_humidity;BME280_pressure;Samples;Min_cycle;Max_cycle;Signal;HPM_P1;HPM_P2
2023/07/08 00:41:57;;;;;;;0.30;0.20;;;;;;;23.39;100.00;99524.31;7404887;19;20028;-78
2023/07/08 00:56:12;;;;;;;2.05;0.28;;;;;;;22.65;100.00;99508.88;7400351;19;20020;-78
2023/07/08 00:58:53;;;;;;;;;;;;;;;23.89;100.00;99503.28;7390918;19;20019;-78
2023/07/08 01:01:19;;;;;;;7.47;0.68;;;;;;;25.40;95.38;99490.66;7387928;19;19911;-79
2023/07/08 01:03:54;;;;;;;1.00;0.60;;;;;;;24.88;96.00;99497.69;7387739;19;20010;-76
2023/07/08 01:06:31;;;;;;;0.90;0.20;;;;;;;24.57;98.11;99488.63;7387319;19;20739;-76
2023/07/08 01:09:02;;;;;;;1.75;0.28;;;;;;;24.50;98.51;99491.53;7392904;19;20018;-76
2023/07/08 01:11:29;;;;;;;1.88;0.47;;;;;;;24.89;96.31;99484.97;7389162;19;20026;-76
2023/07/08 01:13:58;;;;;;;1.38;0.40;;;;;;;25.52;93.37;99485.25;7387516;19;20018;-76
2023/07/08 01:16:24;;;;;;;2.38;0.75;;;;;;;27.02;85.89;99470.84;7387740;19;20018;-79
2023/07/08 01:18:54;;;;;;;1.48;0.60;;;;;;;27.42;81.73;99472.34;7387220;19;20028;-79
2023/07/08 01:21:37;;;;;;;0.63;0.30;;;;;;;26.14;85.32;99466.78;7392525;19;20022;-79
2023/07/08 01:24:09;;;;;;;0.45;0.00;;;;;;;25.96;87.29;99468.91;7387788;19;20010;-79
2023/07/08 03:11:53;;;;;;;1.02;0.80;;;;;;;23.90;100.00;99401.63;7396092;19;20011;-57
2023/07/08 03:14:20;;;;;;;2.67;0.30;;;;;;;24.25;100.00;99391.94;7397662;19;20475;-56
2023/07/08 03:16:46;;;;;;;4.38;1.08;;;;;;;23.85;100.00;99400.53;7394201;19;20011;-56
2023/07/08 03:19:14;;;;;;;4.50;0.55;;;;;;;23.90;100.00;99396.72;7398675;19;20015;-56
2023/07/08 03:21:42;;;;;;;6.57;0.32;;;;;;;24.07;100.00;99402.50;7393731;19;20078;-56
2023/07/08 03:24:13;;;;;;;2.03;0.88;;;;;;;25.75;97.71;99383.00;7394144;19;20029;-56
2023/07/08 03:26:45;;;;;;;1.13;0.52;;;;;;;31.64;69.67;99383.94;7393213;19;20467;-56
2023/07/08 03:29:17;;;;;;;5.03;0.47;;;;;;;27.56;84.67;99391.22;7399511;19;20015;-56
2023/07/08 03:31:45;;;;;;;0.98;0.28;;;;;;;27.52;85.43;99388.06;7395197;19;20017;-56
2023/07/08 03:34:16;;;;;;;1.58;0.22;;;;;;;35.84;58.81;99377.41;7395213;19;20010;-56
2023/07/08 03:36:51;;;;;;;0.82;0.28;;;;;;;26.38;85.60;99387.97;7395242;19;20344;-56
2023/07/08 03:39:21;;;;;;;1.00;0.30;;;;;;;28.05;80.35;99389.72;7399881;19;20018;-56
2023/07/08 03:41:48;;;;;;;3.45;0.50;;;;;;;35.04;52.09;99383.56;7395050;19;20018;-57
2023/07/08 03:44:18;;;;;;;1.10;0.40;;;;;;;25.87;86.97;99389.69;7394917;19;20418;-56
2023/07/08 03:46:46;;;;;;;0.50;0.30;;;;;;;23.77;100.00;99404.75;7393125;19;20373;-56
2023/07/08 03:49:21;;;;;;;1.95;0.63;;;;;;;23.50;100.00;99413.03;7399169;19;20022;-56
2023/07/08 03:51:49;;;;;;;0.40;0.17;;;;;;;23.46;100.00;99412.69;7395402;19;20354;-56
2023/07/08 03:54:18;;;;;;;0.55;0.30;;;;;;;24.29;100.00;99403.66;7396072;19;20006;-57
2023/07/08 03:56:46;;;;;;;0.75;0.30;;;;;;;24.69;100.00;99394.91;7394654;19;20010;-56
2023/07/08 03:59:13;;;;;;;1.63;0.60;;;;;;;24.96;100.00;99395.81;7397206;19;20390;-56
2023/07/08 04:01:41;;;;;;;1.17;0.22;;;;;;;24.53;100.00;99388.63;7395013;19;20018;-56
2023/07/08 04:04:12;;;;;;;6.30;0.98;;;;;;;24.49;100.00;99396.06;7394432;19;20026;-56
2023/07/08 04:06:38;;;;;;;3.50;0.70;;;;;;;24.62;100.00;99384.38;7391840;19;20022;-56
2023/07/08 04:09:06;;;;;;;0.85;0.32;;;;;;;24.45;100.00;99387.94;7395682;19;20070;-56
2023/07/08 04:11:33;;;;;;;1.85;0.43;;;;;;;24.76;100.00;99394.13;7396029;19;20021;-56
2023/07/08 04:13:59;;;;;;;4.05;0.57;;;;;;;25.13;100.00;99392.19;7398565;19;20014;-57
2023/07/08 04:16:42;;;;;;;1.35;0.57;;;;;;;25.10;100.00;99402.66;7395731;19;20010;-56
2023/07/08 04:19:14;;;;;;;1.52;0.28;;;;;;;25.05;100.00;99392.28;7399309;19;20325;-56
2023/07/08 04:21:42;;;;;;;1.73;0.32;;;;;;;25.11;100.00;99392.03;7394285;19;20480;-56
2023/07/08 04:24:13;;;;;;;1.98;0.55;;;;;;;25.11;100.00;99384.22;7396054;19;20456;-56
2023/07/08 04:26:40;;;;;;;0.70;0.20;;;;;;;25.06;100.00;99393.03;7392321;19;20039;-56
2023/07/08 04:29:11;;;;;;;1.42;0.45;;;;;;;24.71;100.00;99383.72;7397878;19;20018;-56
2023/07/08 04:31:37;;;;;;;;;;;;;;;25.13;100.00;99375.84;7395547;19;20562;-57
2023/07/08 04:34:03;;;;;;;2.35;0.60;;;;;;;25.05;100.00;99380.88;7395511;19;19922;-56
2023/07/08 04:36:29;;;;;;;3.13;0.50;;;;;;;24.26;100.00;99386.97;7395705;19;20083;-56
2023/07/08 04:38:57;;;;;;;0.70;0.10;;;;;;;24.59;100.00;99400.53;7396120;19;20089;-56
2023/07/08 04:41:25;;;;;;;0.80;0.47;;;;;;;25.95;100.00;99395.28;7394943;19;20014;-56
2023/07/08 04:45:21;;;;;;;;;;;;;;;;;;;;;
2023/07/08 05:11:35;;;;;;;1.63;0.30;;;;;;;24.79;100.00;99387.25;7394400;19;20036;-57
2023/07/08 05:14:39;;;;;;;3.38;0.70;;;;;;;25.69;100.00;99384.63;7394175;19;20487;-57
2023/07/08 05:17:05;;;;;;;0.73;0.40;;;;;;;23.92;100.00;99399.72;7392178;19;20036;-56
2023/07/08 05:19:31;;;;;;;2.08;0.38;;;;;;;23.75;100.00;99396.81;7395169;19;20014;-56
2023/07/08 05:21:58;;;;;;;3.35;0.80;;;;;;;23.96;100.00;99399.31;7390669;19;20017;-56
2023/07/08 05:24:24;;;;;;;1.25;0.50;;;;;;;23.76;100.00;99415.38;7390258;19;20026;-56
2023/07/08 05:26:50;;;;;;;0.90;0.25;;;;;;;24.51;100.00;99401.94;7389832;19;20018;-56
2023/07/08 05:29:16;;;;;;;2.38;0.65;;;;;;;24.66;100.00;99410.34;7397198;19;20015;-56
2023/07/08 05:31:42;;;;;;;3.40;0.60;;;;;;;25.67;100.00;99399.50;7392461;19;20074;-56
2023/07/08 05:34:08;;;;;;;1.70;0.25;;;;;;;25.07;100.00;99401.00;7391805;19;20006;-56
2023/07/08 05:36:34;;;;;;;2.05;0.55;;;;;;;24.77;100.00;99407.03;7390926;19;20015;-56
2023/07/08 05:39:01;;;;;;;1.08;0.45;;;;;;;24.31;100.00;99411.59;7396067;19;20463;-56
2023/07/08 05:41:27;;;;;;;1.83;0.43;;;;;;;24.34;100.00;99411.22;7392718;19;20047;-56
2023/07/08 05:43:53;;;;;;;1.55;0.30;;;;;;;25.12;100.00;99417.06;7392315;19;20014;-55
2023/07/08 05:46:19;;;;;;;0.70;0.30;;;;;;;25.15;100.00;99430.16;7390202;19;20074;-56
2023/07/08 05:48:45;;;;;;;0.63;0.38;;;;;;;25.64;100.00;99429.22;7395971;19;20042;-56
2023/07/08 05:51:11;;;;;;;0.40;0.10;;;;;;;25.22;100.00;99435.03;7392525;19;20015;-56
2023/07/08 05:53:37;;;;;;;3.55;0.40;;;;;;;25.03;100.00;99454.81;7392152;19;20336;-56
2023/07/08 05:56:04;;;;;;;0.95;0.45;;;;;;;24.77;100.00;99441.22;7393116;19;20017;-56
2023/07/08 05:58:30;;;;;;;1.38;0.30;;;;;;;25.46;100.00;99439.91;7395199;19;20025;-56
2023/07/08 06:00:57;;;;;;;1.48;0.40;;;;;;;25.85;100.00;99445.84;7391094;19;20389;-56
2023/07/08 06:03:24;;;;;;;0.73;0.28;;;;;;;25.82;100.00;99449.88;7393206;19;20070;-56
2023/07/08 06:05:50;;;;;;;2.00;0.63;;;;;;;24.81;100.00;99452.94;7389315;19;20022;-56
2023/07/08 06:08:17;;;;;;;1.88;0.57;;;;;;;24.44;100.00;99456.84;7394122;19;20483;-56
2023/07/08 06:10:44;;;;;;;7.82;0.43;;;;;;;24.15;100.00;99461.44;7390408;19;20041;-57
2023/07/08 06:13:11;;;;;;;1.15;0.45;;;;;;;24.12;100.00;99466.19;7393054;19;20014;-56
2023/07/08 06:15:39;;;;;;;1.38;0.30;;;;;;;24.15;100.00;99461.44;7391587;19;20032;-56
2023/07/08 06:18:05;;;;;;;1.50;0.47;;;;;;;25.43;100.00;99458.16;7392208;19;20011;-56
2023/07/08 06:20:32;;;;;;;3.30;0.63;;;;;;;25.25;100.00;99456.63;7391646;19;20028;-56
2023/07/08 06:22:58;;;;;;;0.85;0.10;;;;;;;24.45;100.00;99458.38;7390967;19;20018;-56
2023/07/08 06:25:24;;;;;;;2.38;0.70;;;;;;;24.46;100.00;99460.63;7398003;19;20358;-56
2023/07/08 06:27:50;;;;;;;2.95;0.40;;;;;;;24.36;100.00;99464.69;7398335;19;20378;-56
2023/07/08 06:30:16;;;;;;;2.35;0.88;;;;;;;24.52;100.00;99466.06;7399317;19;20019;-56
2023/07/08 06:32:42;;;;;;;0.95;0.30;;;;;;;25.03;100.00;99456.91;7399215;19;20006;-57
2023/07/08 06:35:09;;;;;;;1.17;0.38;;;;;;;25.42;100.00;99464.47;7397446;19;20034;-56
2023/07/08 06:37:35;;;;;;;2.40;0.38;;;;;;;25.15;100.00;99447.25;7398753;19;20010;-56
2023/07/08 06:40:01;;;;;;;1.80;0.73;;;;;;;25.29;100.00;99462.69;7398706;19;20018;-55
2023/07/08 06:42:29;;;;;;;3.53;0.82;;;;;;;25.66;100.00;99460.00;7398245;19;20014;-56
2023/07/08 06:52:11;;;;;;;0.88;0.15;;;;;;;25.88;100.00;99476.78;7399391;19;20011;-57
2023/07/08 06:55:17;;;;;;;1.23;0.30;;;;;;;25.44;100.00;99462.53;7397606;19;20022;-57
2023/07/08 06:57:54;;;;;;;0.40;0.20;;;;;;;26.71;100.00;99469.81;7399548;19;20510;-56
2023/07/08 07:00:38;;;;;;;0.55;0.13;;;;;;;25.97;100.00;99464.69;7397876;19;20015;-57
2023/07/08 07:11:01;;;;;;;1.98;0.40;;;;;;;27.46;100.00;99489.84;7397095;19;20094;-57
2023/07/08 07:21:30;;;;;;;0.35;0.10;;;;;;;26.67;100.00;99483.81;7396084;19;20039;-56
2023/07/08 07:24:22;;;;;;;;;;;;;;;27.66;100.00;99479.88;7394918;19;20014;-56
2023/07/08 07:28:07;;;;;;;4.80;0.50;;;;;;;27.80;100.00;99478.06;7396685;19;19943;-56
2023/07/08 07:38:03;;;;;;;2.17;0.40;;;;;;;28.01;100.00;99491.75;7396825;19;20478;-57
2023/07/08 07:41:14;;;;;;;4.07;0.77;;;;;;;28.70;100.00;99503.13;7397302;19;20031;-57
2023/07/08 07:43:52;;;;;;;2.17;0.85;;;;;;;28.27;100.00;99494.41;7396168;19;20031;-57
2023/07/08 07:46:30;;;;;;;4.20;0.63;;;;;;;28.99;100.00;99492.25;7394365;19;20021;-56
2023/07/08 07:57:09;;;;;;;1.00;0.45;;;;;;;28.28;100.00;99487.31;7394441;19;20041;-59
2023/07/08 07:59:50;;;;;;;1.08;0.28;;;;;;;27.88;100.00;99495.81;7399598;19;20015;-56
2023/07/08 08:13:23;;;;;;;0.95;0.28;;;;;;;31.45;89.39;99505.91;7394503;19;20536;-56
2023/07/08 08:15:55;;;;;;;2.10;0.50;;;;;;;30.28;93.26;99512.31;7395527;19;20011;-55
2023/07/08 08:18:22;;;;;;;2.25;0.40;;;;;;;28.67;100.00;99528.06;7395864;19;20007;-55
2023/07/08 08:20:50;;;;;;;4.72;0.47;;;;;;;28.95;100.00;99518.56;7393074;19;20362;-55
2023/07/08 15:45:23;;;;;;;1.30;0.43;;;;;;;32.80;100.00;99735.69;7392809;19;20018;-59
2023/07/08 15:47:50;;;;;;;0.28;0.17;;;;;;;27.35;100.00;99740.03;7401636;19;20017;-63
2023/07/08 15:50:19;;;;;;;2.63;0.30;;;;;;;26.27;100.00;99749.03;7397426;19;20030;-62
2023/07/08 15:52:45;;;;;;;5.28;0.40;;;;;;;28.52;100.00;99746.91;7396441;19;20011;-63
2023/07/08 15:55:13;;;;;;;2.58;0.20;;;;;;;27.16;100.00;99759.19;7393946;19;20340;-59
2023/07/08 15:57:54;;;;;;;3.28;0.25;;;;;;;26.38;100.00;99756.34;7393299;19;20459;-60
2023/07/08 16:00:26;;;;;;;3.30;0.32;;;;;;;26.72;100.00;99757.09;7395427;19;20015;-60
2023/07/08 16:02:56;;;;;;;0.40;0.30;;;;;;;27.29;100.00;99744.50;7397312;19;20017;-63
2023/07/08 16:07:56;;;;;;;1.90;0.35;;;;;;;29.46;100.00;99765.91;7393319;19;20358;-76
2023/07/08 16:10:24;;;;;;;1.30;0.30;;;;;;;28.48;100.00;99769.53;7392080;19;20077;-76
2023/07/08 16:12:53;;;;;;;3.65;0.10;;;;;;;27.76;100.00;99763.97;7393784;19;20473;-76
2023/07/08 16:15:27;;;;;;;2.83;0.47;;;;;;;29.74;100.00;99757.22;7393628;19;20036;-76
2023/07/08 16:17:53;;;;;;;2.10;0.45;;;;;;;29.35;100.00;99761.59;7391468;19;20022;-76
2023/07/08 16:20:22;;;;;;;0.73;0.10;;;;;;;33.42;100.00;99742.09;7390576;19;20018;-76
2023/07/08 16:22:48;;;;;;;2.17;0.10;;;;;;;27.70;100.00;99749.19;7393418;19;20027;-77
2023/07/08 16:25:17;;;;;;;3.35;0.32;;;;;;;43.23;59.96;99729.03;7391118;19;20047;-77
2023/07/08 16:27:46;;;;;;;1.52;0.10;;;;;;;35.88;66.59;99742.06;7392640;19;20029;-77
2023/07/08 16:30:18;;;;;;;0.70;0.13;;;;;;;35.50;73.97;99738.94;7391479;19;20019;-77
2023/07/08 16:32:45;;;;;;;0.47;0.20;;;;;;;33.25;85.64;99733.19;7392287;19;20106;-76
2023/07/08 16:35:14;;;;;;;1.60;0.15;;;;;;;45.56;45.21;99719.50;7392281;19;20052;-77
2023/07/08 16:37:40;;;;;;;4.07;0.25;;;;;;;29.80;100.00;99737.53;7391957;19;20015;-77
2023/07/08 16:40:17;;;;;;;4.15;1.00;;;;;;;26.70;100.00;99748.34;7392238;19;20043;-77
2023/07/08 16:42:47;;;;;;;2.17;0.38;;;;;;;28.01;100.00;99735.88;7391312;19;20036;-76
2023/07/08 16:45:15;;;;;;;0.00;0.00;;;;;;;26.47;100.00;99741.38;7393049;19;20029;-76
2023/07/08 16:47:44;;;;;;;2.20;0.45;;;;;;;26.27;100.00;99731.91;7393029;19;20018;-77
2023/07/08 16:50:11;;;;;;;0.65;0.20;;;;;;;26.20;100.00;99727.03;7391979;19;20070;-76
2023/07/08 16:52:39;;;;;;;0.13;0.10;;;;;;;26.20;100.00;99724.19;7392377;19;20038;-76
2023/07/08 16:55:11;;;;;;;1.58;0.47;;;;;;;25.81;100.00;99723.03;7389575;19;20018;-77
2023/07/08 16:57:37;;;;;;;0.85;0.30;;;;;;;26.30;100.00;99716.44;7395138;19;20014;-77
2023/07/08 17:00:04;;;;;;;1.63;0.25;;;;;;;25.91;100.00;99715.31;7391187;19;20543;-77
2023/07/08 17:02:33;;;;;;;1.65;0.10;;;;;;;25.89;100.00;99711.53;7392635;19;20087;-77
2023/07/08 17:04:59;;;;;;;0.20;0.00;;;;;;;26.02;100.00;99696.94;7392244;19;20337;-77
2023/07/08 17:07:25;;;;;;;0.57;0.20;;;;;;;26.12;100.00;99700.66;7389410;19;20447;-77
2023/07/08 17:09:51;;;;;;;0.50;0.17;;;;;;;25.97;100.00;99712.22;7394002;19;20102;-77
2023/07/08 17:12:17;;;;;;;2.53;0.30;;;;;;;25.69;100.00;99706.97;7391986;19;20023;-77
2023/07/08 17:14:43;;;;;;;1.95;0.30;;;;;;;27.18;100.00;99700.03;7390924;19;20129;-77
2023/07/08 17:17:14;;;;;;;0.52;0.17;;;;;;;27.16;100.00;99697.00;7391022;19;20035;-77
2023/07/08 17:19:40;;;;;;;2.90;0.57;;;;;;;26.84;100.00;99700.94;7390013;19;20022;-77
2023/07/08 17:22:09;;;;;;;3.13;0.70;;;;;;;26.42;100.00;99697.47;7393382;19;20015;-77
2023/07/08 17:24:36;;;;;;;0.77;0.22;;;;;;;26.07;100.00;99710.97;7390390;19;20043;-76
2023/07/08 17:27:02;;;;;;;1.75;0.45;;;;;;;26.06;100.00;99708.69;7387602;19;20077;-76
2023/07/08 17:29:28;;;;;;;0.73;0.20;;;;;;;25.56;100.00;99708.81;7389091;19;20017;-76
2023/07/08 17:31:55;;;;;;;1.65;0.25;;;;;;;27.12;100.00;99718.81;7390951;19;20019;-76
2023/07/08 17:34:25;;;;;;;1.55;0.40;;;;;;;26.11;100.00;99722.75;7390019;19;20564;-76
2023/07/08 17:36:51;;;;;;;2.42;0.40;;;;;;;26.87;100.00;99714.03;7389903;19;20039;-76
2023/07/08 17:39:19;;;;;;;1.00;0.20;;;;;;;26.94;100.00;99721.72;7390572;19;20435;-76
2023/07/08 17:41:49;;;;;;;1.23;0.20;;;;;;;27.44;100.00;99718.53;7388479;19;20013;-77
2023/07/08 17:44:16;;;;;;;1.20;0.15;;;;;;;28.60;100.00;99717.38;7389498;19;20036;-77
2023/07/08 17:46:42;;;;;;;1.33;0.30;;;;;;;28.17;100.00;99727.75;7389567;19;20014;-76
2023/07/08 17:49:11;;;;;;;2.67;0.30;;;;;;;27.30;100.00;99728.84;7391815;19;20018;-77
2023/07/08 17:51:39;;;;;;;2.97;0.20;;;;;;;27.08;100.00;99735.66;7389879;19;20026;-77
2023/07/08 17:54:12;;;;;;;2.10;0.55;;;;;;;26.68;100.00;99745.28;7390189;19;20014;-77
2023/07/08 17:56:41;;;;;;;1.10;0.30;;;;;;;24.85;100.00;99755.25;7389853;19;20018;-77
2023/07/08 17:59:14;;;;;;;0.98;0.28;;;;;;;24.40;100.00;99749.72;7388589;19;20371;-77
2023/07/08 18:01:40;;;;;;;0.10;0.00;;;;;;;23.47;100.00;99743.97;7389822;19;20022;-76
2023/07/08 18:04:07;;;;;;;0.60;0.30;;;;;;;24.86;100.00;99745.41;7387933;19;20350;-77
2023/07/08 18:06:33;;;;;;;0.32;0.10;;;;;;;24.48;100.00;99736.22;7389032;19;20024;-77
2023/07/08 18:08:59;;;;;;;0.65;0.30;;;;;;;24.72;100.00;99735.53;7390181;19;20018;-77
2023/07/08 18:11:27;;;;;;;2.45;0.90;;;;;;;24.03;100.00;99729.31;7389792;19;20015;-77
2023/07/08 18:13:54;;;;;;;0.47;0.28;;;;;;;23.80;100.00;99725.00;7391712;19;20019;-77
2023/07/08 18:16:24;;;;;;;0.50;0.10;;;;;;;24.63;100.00;99721.91;7388510;19;20021;-77
2023/07/08 18:18:50;;;;;;;0.52;0.20;;;;;;;24.53;100.00;99740.94;7394009;19;20280;-76
2023/07/08 18:21:22;;;;;;;5.47;0.28;;;;;;;25.54;100.00;99744.94;7395578;19;20014;-76
2023/07/08 18:23:50;;;;;;;2.22;0.35;;;;;;;23.93;100.00;99745.44;7394992;19;20416;-76
2023/07/08 18:26:21;;;;;;;2.80;0.47;;;;;;;24.10;100.00;99747.72;7395102;19;20047;-76
2023/07/08 18:28:48;;;;;;;2.38;0.75;;;;;;;23.21;100.00;99742.22;7395751;19;20504;-76
2023/07/08 18:31:23;;;;;;;0.57;0.47;;;;;;;22.33;100.00;99739.22;7397743;19;20465;-76
2023/07/08 18:33:49;;;;;;;6.10;0.50;;;;;;;23.77;100.00;99741.09;7395670;19;20017;-76
2023/07/08 18:36:16;;;;;;;2.75;0.50;;;;;;;23.29;100.00;99739.38;7396172;19;20018;-76
2023/07/08 18:38:43;;;;;;;2.55;0.28;;;;;;;23.13;100.00;99746.38;7396488;19;20014;-76
2023/07/08 18:41:21;;;;;;;1.02;0.38;;;;;;;23.22;100.00;99774.97;7395445;19;20015;-76
2023/07/08 18:43:48;;;;;;;0.30;0.10;;;;;;;23.67;100.00;99740.16;7398330;19;20022;-77
2023/07/08 18:46:15;;;;;;;2.28;0.77;;;;;;;23.71;100.00;99737.72;7394821;19;20472;-77
2023/07/08 18:48:42;;;;;;;6.53;0.82;;;;;;;23.05;100.00;99751.25;7394336;19;20383;-77
2023/07/08 18:51:31;;;;;;;2.35;0.15;;;;;;;23.60;100.00;99754.38;7394621;19;20045;-77
2023/07/08 18:53:57;;;;;;;1.15;0.40;;;;;;;25.23;100.00;99757.91;7392315;19;20025;-77
2023/07/08 18:56:23;;;;;;;1.35;0.08;;;;;;;23.51;100.00;99764.25;7400198;19;20101;-77
2023/07/08 18:58:50;;;;;;;1.80;0.55;;;;;;;24.07;100.00;99752.47;7396086;19;20073;-77
2023/07/08 19:01:24;;;;;;;9.13;1.33;;;;;;;23.83;100.00;99772.19;7394976;19;20375;-77
2023/07/08 19:03:51;;;;;;;1.33;0.45;;;;;;;23.25;100.00;99787.28;7392856;19;20010;-77
2023/07/08 19:06:19;;;;;;;1.88;0.57;;;;;;;23.47;100.00;99780.16;7393907;19;20023;-77
2023/07/08 19:08:47;;;;;;;2.05;0.40;;;;;;;22.77;100.00;99771.25;7396467;19;20481;-77
2023/07/08 19:11:25;;;;;;;0.73;0.20;;;;;;;22.30;100.00;99752.47;7394560;19;20026;-77
2023/07/08 19:13:51;;;;;;;0.22;0.20;;;;;;;24.10;100.00;99745.63;7397530;19;20481;-77
2023/07/08 19:16:20;;;;;;;5.45;0.47;;;;;;;24.24;100.00;99765.31;7395684;19;20369;-77
2023/07/08 19:18:50;;;;;;;1.75;0.28;;;;;;;23.54;100.00;99785.84;7398497;19;20041;-77
2023/07/08 19:21:20;;;;;;;1.75;0.30;;;;;;;23.61;100.00;99787.94;7395891;19;20477;-77
2023/07/08 19:23:50;;;;;;;2.15;0.30;;;;;;;25.04;100.00;99786.88;7392633;19;20025;-77
2023/07/08 19:26:18;;;;;;;2.80;0.20;;;;;;;22.79;100.00;99797.75;7391737;19;20018;-77
2023/07/08 19:28:45;;;;;;;2.00;0.52;;;;;;;23.07;100.00;99791.22;7397206;19;20022;-77
2023/07/08 19:31:31;;;;;;;0.45;0.10;;;;;;;22.34;100.00;99792.59;7393140;19;20500;-77
2023/07/08 19:34:01;;;;;;;0.55;0.40;;;;;;;23.10;100.00;99770.97;7394100;19;20022;-77
2023/07/08 19:36:31;;;;;;;0.68;0.40;;;;;;;22.69;100.00;99778.97;7393270;19;20462;-77
2023/07/08 19:38:57;;;;;;;5.03;0.57;;;;;;;22.17;100.00;99803.66;7398242;19;20030;-78
2023/07/08 19:41:28;;;;;;;0.68;0.17;;;;;;;22.45;100.00;99795.13;7393824;19;20259;-77
2023/07/08 19:43:56;;;;;;;4.95;0.55;;;;;;;26.47;100.00;99775.66;7393949;19;20047;-77
2023/07/08 19:46:23;;;;;;;0.85;0.40;;;;;;;22.31;100.00;99773.84;7392678;19;20388;-78
2023/07/08 19:48:49;;;;;;;1.88;0.13;;;;;;;22.60;100.00;99775.34;7396387;19;20026;-77
2023/07/08 19:51:15;;;;;;;0.28;0.10;;;;;;;25.49;100.00;99778.06;7394043;19;20031;-77
2023/07/08 19:53:42;;;;;;;0.45;0.10;;;;;;;22.95;100.00;99787.22;7393774;19;20018;-77
2023/07/08 19:56:17;;;;;;;0.47;0.22;;;;;;;22.61;100.00;99802.41;7392107;19;20112;-77
2023/07/08 19:58:44;;;;;;;0.30;0.10;;;;;;;26.58;100.00;99804.47;7396748;19;20043;-77
2023/07/08 20:01:11;;;;;;;1.35;0.22;;;;;;;25.99;100.00;99804.47;7392305;19;20495;-77
2023/07/08 20:03:37;;;;;;;0.35;0.25;;;;;;;25.73;100.00;99807.19;7392916;19;20074;-77
2023/07/08 20:06:17;;;;;;;2.92;0.63;;;;;;;24.95;100.00;99810.28;7392526;19;20055;-77
2023/07/08 20:08:44;;;;;;;16.97;0.43;;;;;;;23.63;100.00;99805.19;7395753;19;20025;-77
2023/07/08 20:11:11;;;;;;;1.20;0.10;;;;;;;23.28;100.00;99817.44;7391038;19;20006;-79
2023/07/08 20:13:38;;;;;;;2.10;0.55;;;;;;;23.29;100.00;99805.50;7394773;19;20503;-77
2023/07/08 20:16:13;;;;;;;1.70;0.60;;;;;;;23.35;100.00;99808.94;7394008;19;20018;-76
2023/07/08 20:18:39;;;;;;;3.50;0.47;;;;;;;22.53;100.00;99824.28;7393892;19;20628;-77
2023/07/08 20:21:05;;;;;;;1.45;0.40;;;;;;;23.77;100.00;99819.97;7392721;19;20022;-78
2023/07/08 20:23:33;;;;;;;0.65;0.20;;;;;;;23.11;100.00;99817.16;7392951;19;20018;-78
2023/07/08 20:26:00;;;;;;;1.55;0.60;;;;;;;21.88;100.00;99819.13;7392149;19;20286;-78
2023/07/08 20:28:29;;;;;;;5.00;0.45;;;;;;;24.02;100.00;99813.16;7390058;19;20538;-78
2023/07/08 20:30:58;;;;;;;0.98;0.20;;;;;;;22.55;100.00;99830.16;7392260;19;20078;-78
2023/07/08 20:33:25;;;;;;;0.43;0.10;;;;;;;23.20;100.00;99828.00;7390817;19;20046;-78
2023/07/08 20:35:52;;;;;;;0.32;0.10;;;;;;;22.53;100.00;99843.41;7392525;19;20018;-78
2023/07/08 20:38:19;;;;;;;2.08;0.32;;;;;;;22.06;100.00;99849.34;7393850;19;20036;-78
2023/07/08 20:40:46;;;;;;;0.52;0.22;;;;;;;21.13;100.00;99864.44;7391778;19;20019;-78
2023/07/08 20:43:16;;;;;;;0.75;0.17;;;;;;;21.56;100.00;99861.13;7392055;19;20057;-78
2023/07/08 20:45:45;;;;;;;0.73;0.28;;;;;;;25.87;100.00;99839.78;7392063;19;20015;-78
2023/07/08 20:48:26;;;;;;;0.30;0.20;;;;;;;23.08;100.00;99833.28;7393123;19;20041;-78
2023/07/08 20:50:52;;;;;;;5.50;0.32;;;;;;;22.02;100.00;99834.75;7393800;19;20460;-78
2023/07/08 20:53:20;;;;;;;1.63;0.10;;;;;;;23.03;100.00;99822.06;7392110;19;20019;-78
2023/07/08 20:55:48;;;;;;;0.82;0.20;;;;;;;23.83;100.00;99821.31;7395440;19;20010;-78
2023/07/08 20:58:20;;;;;;;5.35;0.43;;;;;;;22.00;100.00;99840.22;7391629;19;20014;-78
2023/07/08 21:00:47;;;;;;;0.20;0.20;;;;;;;21.99;100.00;99838.69;7391083;19;20006;-78
2023/07/08 21:03:17;;;;;;;1.00;0.10;;;;;;;21.51;100.00;99845.00;7392372;19;20027;-78
2023/07/08 21:05:44;;;;;;;0.57;0.15;;;;;;;21.01;100.00;99849.72;7390570;19;20018;-78
2023/07/08 21:08:22;;;;;;;2.38;0.15;;;;;;;20.56;100.00;99856.88;7395769;19;20035;-78
2023/07/08 21:10:50;;;;;;;0.65;0.20;;;;;;;20.23;100.00;99858.25;7392671;19;20039;-77
2023/07/08 21:13:17;;;;;;;1.75;0.20;;;;;;;20.17;100.00;99863.22;7392716;19;20504;-78
2023/07/08 21:15:44;;;;;;;1.13;0.30;;;;;;;20.35;100.00;99870.91;7390929;19;20058;-78
2023/07/08 21:18:17;;;;;;;1.85;0.30;;;;;;;20.45;100.00;99869.16;7391799;19;20039;-78
2023/07/08 21:20:43;;;;;;;2.38;0.30;;;;;;;20.50;100.00;99871.13;7391331;19;20033;-78
2023/07/08 21:23:16;;;;;;;0.63;0.20;;;;;;;22.08;100.00;99863.72;7390409;19;20543;-78
2023/07/08 21:25:46;;;;;;;0.00;0.00;;;;;;;21.30;100.00;99849.91;7390364;19;20473;-78
2023/07/08 21:28:26;;;;;;;2.35;0.22;;;;;;;21.08;100.00;99863.25;7391759;19;20015;-78
2023/07/08 21:30:53;;;;;;;1.08;0.10;;;;;;;21.43;100.00;99858.34;7389823;19;20022;-78
2023/07/08 21:33:19;;;;;;;0.13;0.10;;;;;;;22.67;100.00;99858.28;7389993;19;20367;-78
2023/07/08 21:35:45;;;;;;;1.45;0.20;;;;;;;23.62;100.00;99854.84;7390477;19;20710;-78
2023/07/08 21:38:13;;;;;;;0.10;0.10;;;;;;;22.10;100.00;99869.59;7389435;19;20018;-78
2023/07/08 21:40:44;;;;;;;0.40;0.20;;;;;;;22.94;100.00;99868.81;7390313;19;20018;-78
2023/07/08 21:43:22;;;;;;;0.10;0.10;;;;;;;20.93;100.00;99873.59;7388862;19;20391;-77
2023/07/08 21:45:52;;;;;;;0.10;0.10;;;;;;;20.42;100.00;99871.00;7388387;19;20018;-78
2023/07/08 21:48:20;;;;;;;0.40;0.17;;;;;;;21.44;100.00;99871.22;7391679;19;20111;-78
2023/07/08 21:50:50;;;;;;;1.02;0.17;;;;;;;24.51;100.00;99846.91;7390680;19;20484;-78
2023/07/08 21:53:23;;;;;;;0.70;0.28;;;;;;;23.17;100.00;99849.78;7390466;19;20106;-78
2023/07/08 21:55:50;;;;;;;0.30;0.10;;;;;;;21.57;100.00;99862.66;7395537;19;20033;-78
2023/07/08 21:58:17;;;;;;;0.15;0.10;;;;;;;21.94;100.00;99861.53;7398035;19;20047;-78
2023/07/08 22:00:44;;;;;;;0.30;0.20;;;;;;;21.48;100.00;99871.63;7399990;19;20007;-78
2023/07/08 22:03:15;;;;;;;0.10;0.10;;;;;;;22.39;100.00;99850.50;7397212;19;20350;-78
2023/07/08 22:05:41;;;;;;;0.32;0.25;;;;;;;22.34;100.00;99854.25;7396489;19;20497;-78
2023/07/08 22:08:20;;;;;;;0.35;0.20;;;;;;;21.94;100.00;99862.25;7395407;19;20050;-78
2023/07/08 22:10:50;;;;;;;0.90;0.22;;;;;;;23.05;100.00;99853.53;7394739;19;20014;-78
2023/07/08 22:13:28;;;;;;;0.10;0.10;;;;;;;22.01;100.00;99861.56;7400484;19;20485;-78
2023/07/08 22:15:55;;;;;;;0.63;0.45;;;;;;;23.21;100.00;99855.88;7396497;19;20022;-78
2023/07/08 22:18:21;;;;;;;1.95;0.30;;;;;;;23.05;100.00;99864.88;7396455;19;20022;-78
2023/07/08 22:20:53;;;;;;;0.20;0.10;;;;;;;23.17;100.00;99871.78;7395455;19;20506;-78
2023/07/08 22:23:19;;;;;;;1.17;0.30;;;;;;;22.70;100.00;99866.41;7396825;19;20026;-78
2023/07/08 22:25:45;;;;;;;0.20;0.10;;;;;;;22.35;100.00;99867.13;7400128;19;20055;-78
2023/07/08 22:28:14;;;;;;;1.70;0.38;;;;;;;22.84;100.00;99867.84;7396617;19;20029;-78
2023/07/08 22:30:42;;;;;;;0.35;0.10;;;;;;;23.17;100.00;99849.03;7396730;19;20465;-78
2023/07/08 22:33:10;;;;;;;0.40;0.20;;;;;;;22.93;100.00;99852.34;7394423;19;20025;-78
2023/07/08 22:35:37;;;;;;;5.00;0.25;;;;;;;22.50;100.00;99856.63;7398162;19;20021;-78
2023/07/08 22:38:04;;;;;;;0.40;0.20;;;;;;;22.52;100.00;99858.94;7395398;19;20019;-78
2023/07/08 22:40:32;;;;;;;0.15;0.10;;;;;;;22.42;100.00;99872.09;7396162;19;20501;-78
2023/07/08 22:42:59;;;;;;;0.10;0.10;;;;;;;28.77;100.00;99857.66;7395850;19;20347;-78
2023/07/08 22:45:25;;;;;;;0.38;0.20;;;;;;;29.25;100.00;99855.56;7391597;19;20011;-78
2023/07/08 22:47:52;;;;;;;0.13;0.13;;;;;;;29.18;100.00;99860.09;7394430;19;20014;-78
2023/07/08 22:50:22;;;;;;;1.52;0.17;;;;;;;28.84;100.00;99862.50;7394030;19;20033;-78
2023/07/08 22:52:50;;;;;;;1.08;0.35;;;;;;;29.34;100.00;99863.38;7394585;19;20457;-78
2023/07/08 22:55:36;;;;;;;0.52;0.50;;;;;;;29.13;100.00;99872.59;7392795;19;20019;-78